sensor_id;sensor_type;location;lat;lon;timestamp;pressure;altitude;pressure_sealevel;temperature;humidity
58223;BME280;44020;50.890;15.796;2023-04-06T00:00:41;98070.61;;;-1.17;65.59
58223;BME280;44020;50.890;15.796;2023-04-06T00:03:15;98069.83;;;-1.22;65.78
58223;BME280;44020;50.890;15.796;2023-04-06T00:05:43;98067.63;;;-1.26;65.76
58223;BME280;44020;50.890;15.796;2023-04-06T00:08:10;98067.33;;;-1.28;65.96
58223;BME280;44020;50.890;15.796;2023-04-06T00:10:38;98068.86;;;-1.26;65.96
58223;BME280;44020;50.890;15.796;2023-04-06T00:13:05;98069.75;;;-1.28;65.85
58223;BME280;44020;50.890;15.796;2023-04-06T00:15:33;98072.81;;;-1.34;65.77
58223;BME280;44020;50.890;15.796;2023-04-06T00:18:01;98069.10;;;-1.40;65.83
58223;BME280;44020;50.890;15.796;2023-04-06T00:20:29;98067.25;;;-1.44;65.95
58223;BME280;44020;50.890;15.796;2023-04-06T00:22:57;98065.91;;;-1.48;65.98
58223;BME280;44020;50.890;15.796;2023-04-06T00:25:24;98061.56;;;-1.48;66.21
58223;BME280;44020;50.890;15.796;2023-04-06T00:27:52;98060.13;;;-1.46;66.47
58223;BME280;44020;50.890;15.796;2023-04-06T00:30:19;98056.63;;;-1.44;66.34
58223;BME280;44020;50.890;15.796;2023-04-06T00:32:47;98058.03;;;-1.46;66.14
58223;BME280;44020;50.890;15.796;2023-04-06T00:35:14;98057.77;;;-1.51;65.91
58223;BME280;44020;50.890;15.796;2023-04-06T00:37:43;98056.67;;;-1.58;65.97
58223;BME280;44020;50.890;15.796;2023-04-06T00:40:10;98052.54;;;-1.61;66.09
58223;BME280;44020;50.890;15.796;2023-04-06T00:42:38;98051.52;;;-1.63;66.16
58223;BME280;44020;50.890;15.796;2023-04-06T00:45:05;98051.66;;;-1.71;66.01
58223;BME280;44020;50.890;15.796;2023-04-06T00:47:33;98050.73;;;-1.79;65.98
58223;BME280;44020;50.890;15.796;2023-04-06T00:50:01;98050.05;;;-1.81;66.26
58223;BME280;44020;50.890;15.796;2023-04-06T00:52:28;98052.14;;;-1.80;66.39
58223;BME280;44020;50.890;15.796;2023-04-06T00:54:56;98051.08;;;-1.78;66.54
58223;BME280;44020;50.890;15.796;2023-04-06T00:57:24;98049.84;;;-1.78;66.36
58223;BME280;44020;50.890;15.796;2023-04-06T00:59:51;98049.95;;;-1.86;66.24
58223;BME280;44020;50.890;15.796;2023-04-06T01:02:19;98049.23;;;-1.96;65.98
58223;BME280;44020;50.890;15.796;2023-04-06T01:04:47;98050.27;;;-1.96;66.26
58223;BME280;44020;50.890;15.796;2023-04-06T01:07:14;98050.95;;;-1.95;66.36
58223;BME280;44020;50.890;15.796;2023-04-06T01:09:42;98045.96;;;-1.97;66.37
58223;BME280;44020;50.890;15.796;2023-04-06T01:12:09;98048.38;;;-1.97;66.32
58223;BME280;44020;50.890;15.796;2023-04-06T01:14:37;98050.11;;;-1.97;66.37
58223;BME280;44020;50.890;15.796;2023-04-06T01:17:05;98049.28;;;-1.98;66.22
58223;BME280;44020;50.890;15.796;2023-04-06T01:19:32;98046.56;;;-2.04;66.24
58223;BME280;44020;50.890;15.796;2023-04-06T01:21:59;98043.18;;;-2.10;66.14
58223;BME280;44020;50.890;15.796;2023-04-06T01:24:27;98045.23;;;-2.20;66.08
58223;BME280;44020;50.890;15.796;2023-04-06T01:26:54;98040.38;;;-2.22;66.62
58223;BME280;44020;50.890;15.796;2023-04-06T01:29:21;98043.66;;;-2.20;66.54
58223;BME280;44020;50.890;15.796;2023-04-06T01:31:49;98046.25;;;-2.17;66.69
58223;BME280;44020;50.890;15.796;2023-04-06T01:34:17;98049.43;;;-2.21;66.45
58223;BME280;44020;50.890;15.796;2023-04-06T01:36:45;98050.00;;;-2.25;66.57
58223;BME280;44020;50.890;15.796;2023-04-06T01:39:12;98048.95;;;-2.24;66.72
58223;BME280;44020;50.890;15.796;2023-04-06T01:41:40;98045.30;;;-2.25;66.63
58223;BME280;44020;50.890;15.796;2023-04-06T01:44:07;98045.92;;;-2.32;66.33
58223;BME280;44020;50.890;15.796;2023-04-06T01:46:35;98041.14;;;-2.38;66.24
58223;BME280;44020;50.890;15.796;2023-04-06T01:49:03;98041.36;;;-2.43;66.27
58223;BME280;44020;50.890;15.796;2023-04-06T01:51:30;98037.23;;;-2.45;66.35
58223;BME280;44020;50.890;15.796;2023-04-06T01:53:58;98038.45;;;-2.47;66.40
58223;BME280;44020;50.890;15.796;2023-04-06T01:56:25;98033.25;;;-2.48;66.46
58223;BME280;44020;50.890;15.796;2023-04-06T01:58:53;98039.30;;;-2.45;66.67
58223;BME280;44020;50.890;15.796;2023-04-06T02:01:21;98043.83;;;-2.45;66.50
58223;BME280;44020;50.890;15.796;2023-04-06T02:03:48;98043.02;;;-2.51;66.35
58223;BME280;44020;50.890;15.796;2023-04-06T02:06:16;98048.29;;;-2.54;66.45
58223;BME280;44020;50.890;15.796;2023-04-06T02:08:43;98044.36;;;-2.59;66.40
58223;BME280;44020;50.890;15.796;2023-04-06T02:11:11;98043.49;;;-2.60;66.49
58223;BME280;44020;50.890;15.796;2023-04-06T02:13:38;98046.67;;;-2.64;66.44
58223;BME280;44020;50.890;15.796;2023-04-06T02:16:06;98044.61;;;-2.65;66.59
58223;BME280;44020;50.890;15.796;2023-04-06T02:18:33;98045.11;;;-2.65;66.71
58223;BME280;44020;50.890;15.796;2023-04-06T02:21:01;98047.56;;;-2.66;66.58
58223;BME280;44020;50.890;15.796;2023-04-06T02:23:29;98050.58;;;-2.70;66.38
58223;BME280;44020;50.890;15.796;2023-04-06T02:25:57;98048.02;;;-2.75;66.56
58223;BME280;44020;50.890;15.796;2023-04-06T02:28:24;98047.86;;;-2.76;66.53
58223;BME280;44020;50.890;15.796;2023-04-06T02:30:51;98048.75;;;-2.77;66.66
58223;BME280;44020;50.890;15.796;2023-04-06T02:33:19;98046.81;;;-2.76;67.02
58223;BME280;44020;50.890;15.796;2023-04-06T02:35:46;98044.87;;;-2.73;66.89
58223;BME280;44020;50.890;15.796;2023-04-06T02:38:14;98038.73;;;-2.69;66.93
58223;BME280;44020;50.890;15.796;2023-04-06T02:40:41;98038.38;;;-2.68;66.90
58223;BME280;44020;50.890;15.796;2023-04-06T02:43:09;98042.01;;;-2.66;66.83
58223;BME280;44020;50.890;15.796;2023-04-06T02:45:36;98046.70;;;-2.66;66.82
58223;BME280;44020;50.890;15.796;2023-04-06T02:48:04;98043.27;;;-2.70;66.70
58223;BME280;44020;50.890;15.796;2023-04-06T02:50:31;98046.23;;;-2.70;66.68
58223;BME280;44020;50.890;15.796;2023-04-06T02:52:59;98051.54;;;-2.79;66.42
58223;BME280;44020;50.890;15.796;2023-04-06T02:55:27;98050.52;;;-2.82;66.86
58223;BME280;44020;50.890;15.796;2023-04-06T02:57:55;98052.63;;;-2.82;66.82
58223;BME280;44020;50.890;15.796;2023-04-06T03:00:22;98048.44;;;-2.81;67.01
58223;BME280;44020;50.890;15.796;2023-04-06T03:02:50;98049.29;;;-2.80;67.13
58223;BME280;44020;50.890;15.796;2023-04-06T03:05:17;98047.54;;;-2.78;66.95
58223;BME280;44020;50.890;15.796;2023-04-06T03:07:45;98053.63;;;-2.79;66.98
58223;BME280;44020;50.890;15.796;2023-04-06T03:10:12;98054.64;;;-2.76;67.09
58223;BME280;44020;50.890;15.796;2023-04-06T03:12:40;98060.21;;;-2.78;66.92
58223;BME280;44020;50.890;15.796;2023-04-06T03:15:08;98066.02;;;-2.84;66.59
58223;BME280;44020;50.890;15.796;2023-04-06T03:17:36;98062.26;;;-2.89;66.68
58223;BME280;44020;50.890;15.796;2023-04-06T03:20:04;98064.20;;;-2.92;66.59
58223;BME280;44020;50.890;15.796;2023-04-06T03:22:31;98066.74;;;-3.01;66.42
58223;BME280;44020;50.890;15.796;2023-04-06T03:24:58;98070.98;;;-3.08;66.66
58223;BME280;44020;50.890;15.796;2023-04-06T03:27:26;98071.58;;;-3.15;66.35
58223;BME280;44020;50.890;15.796;2023-04-06T03:29:54;98074.80;;;-3.27;66.46
58223;BME280;44020;50.890;15.796;2023-04-06T03:32:21;98075.50;;;-3.27;66.95
58223;BME280;44020;50.890;15.796;2023-04-06T03:34:49;98073.37;;;-3.21;67.09
58223;BME280;44020;50.890;15.796;2023-04-06T03:37:16;98077.51;;;-3.18;67.05
58223;BME280;44020;50.890;15.796;2023-04-06T03:39:44;98079.42;;;-3.19;66.75
58223;BME280;44020;50.890;15.796;2023-04-06T03:42:11;98075.98;;;-3.23;66.74
58223;BME280;44020;50.890;15.796;2023-04-06T03:44:39;98076.71;;;-3.26;66.77
58223;BME280;44020;50.890;15.796;2023-04-06T03:47:07;98074.80;;;-3.25;66.98
58223;BME280;44020;50.890;15.796;2023-04-06T03:49:34;98078.86;;;-3.33;66.54
58223;BME280;44020;50.890;15.796;2023-04-06T03:52:02;98082.77;;;-3.42;66.75
58223;BME280;44020;50.890;15.796;2023-04-06T03:54:29;98083.27;;;-3.41;66.80
58223;BME280;44020;50.890;15.796;2023-04-06T03:56:56;98079.77;;;-3.39;66.89
58223;BME280;44020;50.890;15.796;2023-04-06T03:59:24;98082.73;;;-3.37;66.88
58223;BME280;44020;50.890;15.796;2023-04-06T04:01:51;98082.20;;;-3.37;66.82
58223;BME280;44020;50.890;15.796;2023-04-06T04:04:19;98082.34;;;-3.34;67.01
58223;BME280;44020;50.890;15.796;2023-04-06T04:06:46;98089.98;;;-3.32;66.86
58223;BME280;44020;50.890;15.796;2023-04-06T04:09:14;98089.97;;;-3.32;66.89
58223;BME280;44020;50.890;15.796;2023-04-06T04:11:41;98091.72;;;-3.32;66.75
58223;BME280;44020;50.890;15.796;2023-04-06T04:14:09;98092.23;;;-3.34;66.91
58223;BME280;44020;50.890;15.796;2023-04-06T04:16:36;98092.61;;;-3.35;66.82
58223;BME280;44020;50.890;15.796;2023-04-06T04:19:04;98091.73;;;-3.36;66.94
58223;BME280;44020;50.890;15.796;2023-04-06T04:21:31;98090.70;;;-3.37;66.93
58223;BME280;44020;50.890;15.796;2023-04-06T04:23:58;98088.77;;;-3.35;66.93
58223;BME280;44020;50.890;15.796;2023-04-06T04:26:25;98096.45;;;-3.38;66.84
58223;BME280;44020;50.890;15.796;2023-04-06T04:28:53;98095.79;;;-3.42;66.67
58223;BME280;44020;50.890;15.796;2023-04-06T04:31:20;98102.58;;;-3.42;66.80
58223;BME280;44020;50.890;15.796;2023-04-06T04:33:49;98102.04;;;-3.41;66.91
58223;BME280;44020;50.890;15.796;2023-04-06T04:36:16;98104.66;;;-3.43;66.80
58223;BME280;44020;50.890;15.796;2023-04-06T04:38:43;98104.67;;;-3.47;66.66
58223;BME280;44020;50.890;15.796;2023-04-06T04:41:10;98103.17;;;-3.53;66.69
58223;BME280;44020;50.890;15.796;2023-04-06T04:43:38;98102.48;;;-3.53;66.91
58223;BME280;44020;50.890;15.796;2023-04-06T04:46:05;98101.23;;;-3.50;66.99
58223;BME280;44020;50.890;15.796;2023-04-06T04:48:32;98100.70;;;-3.50;67.20
58223;BME280;44020;50.890;15.796;2023-04-06T04:51:00;98099.81;;;-3.47;67.12
58223;BME280;44020;50.890;15.796;2023-04-06T04:53:27;98094.29;;;-3.49;66.71
58223;BME280;44020;50.890;15.796;2023-04-06T04:55:55;98098.83;;;-3.52;66.96
58223;BME280;44020;50.890;15.796;2023-04-06T04:58:22;98097.59;;;-3.52;66.96
58223;BME280;44020;50.890;15.796;2023-04-06T05:00:49;98100.58;;;-3.55;66.86
58223;BME280;44020;50.890;15.796;2023-04-06T05:03:21;98104.93;;;-3.56;67.03
58223;BME280;44020;50.890;15.796;2023-04-06T05:05:49;98107.86;;;-3.54;67.16
58223;BME280;44020;50.890;15.796;2023-04-06T05:08:16;98105.60;;;-3.53;67.29
58223;BME280;44020;50.890;15.796;2023-04-06T05:10:43;98105.25;;;-3.52;67.28
58223;BME280;44020;50.890;15.796;2023-04-06T05:13:15;98106.97;;;-3.51;67.22
58223;BME280;44020;50.890;15.796;2023-04-06T05:15:42;98104.54;;;-3.53;67.11
58223;BME280;44020;50.890;15.796;2023-04-06T05:18:10;98103.34;;;-3.53;67.45
58223;BME280;44020;50.890;15.796;2023-04-06T05:20:38;98104.52;;;-3.50;67.55
58223;BME280;44020;50.890;15.796;2023-04-06T05:23:06;98106.27;;;-3.48;67.54
58223;BME280;44020;50.890;15.796;2023-04-06T05:25:33;98111.09;;;-3.45;67.59
58223;BME280;44020;50.890;15.796;2023-04-06T05:28:01;98117.84;;;-3.40;67.87
58223;BME280;44020;50.890;15.796;2023-04-06T05:30:29;98122.81;;;-3.34;67.93
58223;BME280;44020;50.890;15.796;2023-04-06T05:32:56;98122.45;;;-3.30;67.91
58223;BME280;44020;50.890;15.796;2023-04-06T05:35:24;98122.06;;;-3.27;67.91
58223;BME280;44020;50.890;15.796;2023-04-06T05:37:52;98117.52;;;-3.23;68.19
58223;BME280;44020;50.890;15.796;2023-04-06T05:40:20;98116.23;;;-3.17;68.56
58223;BME280;44020;50.890;15.796;2023-04-06T05:42:47;98116.02;;;-3.11;68.39
58223;BME280;44020;50.890;15.796;2023-04-06T05:45:16;98116.85;;;-3.07;68.15
58223;BME280;44020;50.890;15.796;2023-04-06T05:47:45;98119.08;;;-3.03;68.58
58223;BME280;44020;50.890;15.796;2023-04-06T05:50:13;98115.37;;;-2.98;68.51
58223;BME280;44020;50.890;15.796;2023-04-06T05:52:41;98111.48;;;-2.92;68.81
58223;BME280;44020;50.890;15.796;2023-04-06T05:55:10;98106.73;;;-2.85;69.12
58223;BME280;44020;50.890;15.796;2023-04-06T05:57:38;98107.34;;;-2.79;69.26
58223;BME280;44020;50.890;15.796;2023-04-06T06:00:05;98111.09;;;-2.70;69.43
58223;BME280;44020;50.890;15.796;2023-04-06T06:02:35;98112.88;;;-2.59;69.74
58223;BME280;44020;50.890;15.796;2023-04-06T06:05:03;98111.05;;;-2.51;69.96
58223;BME280;44020;50.890;15.796;2023-04-06T06:07:31;98106.44;;;-2.44;69.96
58223;BME280;44020;50.890;15.796;2023-04-06T06:09:58;98107.55;;;-2.36;70.15
58223;BME280;44020;50.890;15.796;2023-04-06T06:12:26;98107.98;;;-2.27;70.44
58223;BME280;44020;50.890;15.796;2023-04-06T06:14:53;98103.54;;;-2.20;70.51
58223;BME280;44020;50.890;15.796;2023-04-06T06:17:21;98098.77;;;-2.14;70.24
58223;BME280;44020;50.890;15.796;2023-04-06T06:19:48;98101.11;;;-2.08;70.46
58223;BME280;44020;50.890;15.796;2023-04-06T06:22:16;98103.60;;;-1.99;70.71
58223;BME280;44020;50.890;15.796;2023-04-06T06:24:44;98097.22;;;-1.91;70.78
58223;BME280;44020;50.890;15.796;2023-04-06T06:27:12;98095.88;;;-1.82;70.86
58223;BME280;44020;50.890;15.796;2023-04-06T06:29:39;98096.82;;;-1.75;70.88
58223;BME280;44020;50.890;15.796;2023-04-06T06:32:07;98102.28;;;-1.68;71.02
58223;BME280;44020;50.890;15.796;2023-04-06T06:34:35;98098.34;;;-1.61;70.96
58223;BME280;44020;50.890;15.796;2023-04-06T06:37:03;98096.48;;;-1.53;71.21
58223;BME280;44020;50.890;15.796;2023-04-06T06:39:30;98097.76;;;-1.46;71.55
58223;BME280;44020;50.890;15.796;2023-04-06T06:41:57;98093.97;;;-1.38;71.55
58223;BME280;44020;50.890;15.796;2023-04-06T06:44:27;98099.59;;;-1.29;71.41
58223;BME280;44020;50.890;15.796;2023-04-06T06:46:55;98097.92;;;-1.24;71.52
58223;BME280;44020;50.890;15.796;2023-04-06T06:49:22;98097.29;;;-1.17;71.70
58223;BME280;44020;50.890;15.796;2023-04-06T06:51:50;98097.14;;;-1.09;71.76
58223;BME280;44020;50.890;15.796;2023-04-06T06:54:17;98097.73;;;-1.02;71.83
58223;BME280;44020;50.890;15.796;2023-04-06T06:56:45;98098.98;;;-0.93;71.98
58223;BME280;44020;50.890;15.796;2023-04-06T06:59:13;98096.76;;;-0.87;71.42
58223;BME280;44020;50.890;15.796;2023-04-06T07:01:40;98099.48;;;-0.84;71.50
58223;BME280;44020;50.890;15.796;2023-04-06T07:04:08;98098.47;;;-0.76;71.44
58223;BME280;44020;50.890;15.796;2023-04-06T07:06:35;98100.75;;;-0.68;71.78
58223;BME280;44020;50.890;15.796;2023-04-06T07:09:03;98099.01;;;-0.58;71.85
58223;BME280;44020;50.890;15.796;2023-04-06T07:11:30;98097.48;;;-0.51;71.63
58223;BME280;44020;50.890;15.796;2023-04-06T07:13:57;98091.55;;;-0.43;71.95
58223;BME280;44020;50.890;15.796;2023-04-06T07:16:25;98092.59;;;-0.33;72.02
58223;BME280;44020;50.890;15.796;2023-04-06T07:18:52;98087.69;;;-0.25;72.13
58223;BME280;44020;50.890;15.796;2023-04-06T07:21:19;98085.45;;;-0.18;71.88
58223;BME280;44020;50.890;15.796;2023-04-06T07:23:47;98085.48;;;-0.11;71.65
58223;BME280;44020;50.890;15.796;2023-04-06T07:26:15;98085.20;;;-0.06;71.62
58223;BME280;44020;50.890;15.796;2023-04-06T07:28:42;98079.65;;;0.00;71.35
58223;BME280;44020;50.890;15.796;2023-04-06T07:31:10;98082.13;;;0.07;71.75
58223;BME280;44020;50.890;15.796;2023-04-06T07:33:37;98082.81;;;0.15;71.52
58223;BME280;44020;50.890;15.796;2023-04-06T07:36:04;98083.02;;;0.22;71.73
58223;BME280;44020;50.890;15.796;2023-04-06T07:38:31;98083.53;;;0.30;71.82
58223;BME280;44020;50.890;15.796;2023-04-06T07:40:59;98088.58;;;0.38;71.43
58223;BME280;44020;50.890;15.796;2023-04-06T07:43:27;98088.55;;;0.46;72.01
58223;BME280;44020;50.890;15.796;2023-04-06T07:45:54;98089.74;;;0.55;71.87
58223;BME280;44020;50.890;15.796;2023-04-06T07:48:21;98088.45;;;0.65;71.57
58223;BME280;44020;50.890;15.796;2023-04-06T07:50:49;98087.69;;;0.75;71.63
58223;BME280;44020;50.890;15.796;2023-04-06T07:53:16;98087.73;;;0.87;72.20
58223;BME280;44020;50.890;15.796;2023-04-06T07:55:43;98085.95;;;1.02;71.85
58223;BME280;44020;50.890;15.796;2023-04-06T07:58:11;98084.31;;;1.12;70.11
58223;BME280;44020;50.890;15.796;2023-04-06T08:00:38;98083.56;;;1.20;69.85
58223;BME280;44020;50.890;15.796;2023-04-06T08:03:05;98085.21;;;1.30;69.46
58223;BME280;44020;50.890;15.796;2023-04-06T08:05:33;98084.30;;;1.37;68.70
58223;BME280;44020;50.890;15.796;2023-04-06T08:08:01;98085.25;;;1.48;68.55
58223;BME280;44020;50.890;15.796;2023-04-06T08:10:29;98083.88;;;1.60;68.20
58223;BME280;44020;50.890;15.796;2023-04-06T08:12:56;98084.27;;;1.70;68.04
58223;BME280;44020;50.890;15.796;2023-04-06T08:15:23;98085.63;;;1.72;67.49
58223;BME280;44020;50.890;15.796;2023-04-06T08:17:51;98083.34;;;1.78;67.24
58223;BME280;44020;50.890;15.796;2023-04-06T08:20:18;98083.44;;;1.87;66.69
58223;BME280;44020;50.890;15.796;2023-04-06T08:22:45;98081.98;;;1.95;66.29
58223;BME280;44020;50.890;15.796;2023-04-06T08:25:13;98081.48;;;2.00;65.92
58223;BME280;44020;50.890;15.796;2023-04-06T08:27:41;98081.45;;;2.07;65.50
58223;BME280;44020;50.890;15.796;2023-04-06T08:30:08;98080.25;;;2.12;65.42
58223;BME280;44020;50.890;15.796;2023-04-06T08:32:36;98076.54;;;2.13;64.87
58223;BME280;44020;50.890;15.796;2023-04-06T08:35:04;98072.91;;;2.17;64.79
58223;BME280;44020;50.890;15.796;2023-04-06T08:37:31;98073.23;;;2.24;64.67
58223;BME280;44020;50.890;15.796;2023-04-06T08:39:58;98075.63;;;2.37;64.75
58223;BME280;44020;50.890;15.796;2023-04-06T08:42:26;98073.12;;;2.49;64.72
58223;BME280;44020;50.890;15.796;2023-04-06T08:44:55;98077.36;;;2.59;64.32
58223;BME280;44020;50.890;15.796;2023-04-06T08:47:22;98079.95;;;2.61;63.46
58223;BME280;44020;50.890;15.796;2023-04-06T08:49:49;98074.56;;;2.64;63.12
58223;BME280;44020;50.890;15.796;2023-04-06T08:52:17;98073.13;;;2.71;62.97
58223;BME280;44020;50.890;15.796;2023-04-06T08:54:45;98071.30;;;2.79;62.82
58223;BME280;44020;50.890;15.796;2023-04-06T08:57:13;98066.11;;;2.87;62.78
58223;BME280;44020;50.890;15.796;2023-04-06T08:59:40;98068.73;;;2.98;62.95
58223;BME280;44020;50.890;15.796;2023-04-06T09:02:08;98068.61;;;3.06;62.86
58223;BME280;44020;50.890;15.796;2023-04-06T09:04:41;98063.24;;;3.14;62.63
58223;BME280;44020;50.890;15.796;2023-04-06T09:07:08;98060.60;;;3.25;62.38
58223;BME280;44020;50.890;15.796;2023-04-06T09:09:35;98054.52;;;3.33;62.45
58223;BME280;44020;50.890;15.796;2023-04-06T09:12:03;98053.52;;;3.41;61.77
58223;BME280;44020;50.890;15.796;2023-04-06T09:14:34;98052.80;;;3.47;61.52
58223;BME280;44020;50.890;15.796;2023-04-06T09:17:01;98052.08;;;3.52;61.23
58223;BME280;44020;50.890;15.796;2023-04-06T09:19:29;98046.31;;;3.56;60.87
58223;BME280;44020;50.890;15.796;2023-04-06T09:22:03;98047.66;;;3.58;60.43
58223;BME280;44020;50.890;15.796;2023-04-06T09:24:44;98046.68;;;3.55;60.10
58223;BME280;44020;50.890;15.796;2023-04-06T09:27:12;98043.10;;;3.62;59.75
58223;BME280;44020;50.890;15.796;2023-04-06T09:29:40;98042.33;;;3.69;59.62
58223;BME280;44020;50.890;15.796;2023-04-06T09:32:07;98041.79;;;3.73;59.01
58223;BME280;44020;50.890;15.796;2023-04-06T09:34:37;98036.09;;;3.76;58.75
58223;BME280;44020;50.890;15.796;2023-04-06T09:37:18;98039.63;;;3.84;58.88
58223;BME280;44020;50.890;15.796;2023-04-06T09:39:46;98038.98;;;3.92;58.05
58223;BME280;44020;50.890;15.796;2023-04-06T09:42:25;98038.27;;;3.97;58.12
58223;BME280;44020;50.890;15.796;2023-04-06T09:44:52;98032.42;;;4.03;57.97
58223;BME280;44020;50.890;15.796;2023-04-06T09:47:19;98032.59;;;4.08;57.85
58223;BME280;44020;50.890;15.796;2023-04-06T09:49:47;98032.58;;;4.17;57.82
58223;BME280;44020;50.890;15.796;2023-04-06T09:52:17;98027.83;;;4.26;57.06
58223;BME280;44020;50.890;15.796;2023-04-06T09:54:45;98033.83;;;4.34;56.60
58223;BME280;44020;50.890;15.796;2023-04-06T09:57:20;98031.21;;;4.43;56.35
58223;BME280;44020;50.890;15.796;2023-04-06T10:00:05;98029.63;;;4.51;55.92
58223;BME280;44020;50.890;15.796;2023-04-06T10:07:35;98023.61;;;4.73;55.13
58223;BME280;44020;50.890;15.796;2023-04-06T10:10:03;98025.02;;;4.82;54.80
58223;BME280;44020;50.890;15.796;2023-04-06T10:12:30;98024.16;;;4.94;55.08
58223;BME280;44020;50.890;15.796;2023-04-06T10:14:58;98025.60;;;5.05;55.01
58223;BME280;44020;50.890;15.796;2023-04-06T10:17:25;98021.70;;;5.14;54.50
58223;BME280;44020;50.890;15.796;2023-04-06T10:20:01;98017.48;;;5.22;54.44
58223;BME280;44020;50.890;15.796;2023-04-06T10:22:32;98014.58;;;5.33;54.31
58223;BME280;44020;50.890;15.796;2023-04-06T10:25:02;98013.00;;;5.44;54.51
58223;BME280;44020;50.890;15.796;2023-04-06T10:27:30;98016.43;;;5.54;53.67
58223;BME280;44020;50.890;15.796;2023-04-06T10:30:01;98007.03;;;5.55;52.98
58223;BME280;44020;50.890;15.796;2023-04-06T10:32:33;98005.57;;;5.64;53.20
58223;BME280;44020;50.890;15.796;2023-04-06T10:35:09;98010.09;;;5.70;52.26
58223;BME280;44020;50.890;15.796;2023-04-06T10:40:36;98010.34;;;5.68;51.21
58223;BME280;44020;50.890;15.796;2023-04-06T10:45:35;98009.72;;;5.78;51.54
58223;BME280;44020;50.890;15.796;2023-04-06T10:48:15;98008.50;;;5.89;51.41
58223;BME280;44020;50.890;15.796;2023-04-06T10:50:43;98008.58;;;5.95;51.50
58223;BME280;44020;50.890;15.796;2023-04-06T10:53:11;98004.51;;;6.03;51.11
58223;BME280;44020;50.890;15.796;2023-04-06T10:55:39;98001.64;;;6.12;51.52
58223;BME280;44020;50.890;15.796;2023-04-06T10:58:08;98000.80;;;6.18;51.63
58223;BME280;44020;50.890;15.796;2023-04-06T11:00:35;98001.08;;;6.27;51.10
58223;BME280;44020;50.890;15.796;2023-04-06T11:03:03;97999.64;;;6.35;50.77
58223;BME280;44020;50.890;15.796;2023-04-06T11:05:30;98003.33;;;6.50;50.63
58223;BME280;44020;50.890;15.796;2023-04-06T11:07:58;98006.55;;;6.53;49.37
58223;BME280;44020;50.890;15.796;2023-04-06T11:10:25;98006.92;;;6.37;48.95
58223;BME280;44020;50.890;15.796;2023-04-06T11:12:54;98009.44;;;6.26;49.57
58223;BME280;44020;50.890;15.796;2023-04-06T11:15:21;98005.00;;;6.27;49.67
58223;BME280;44020;50.890;15.796;2023-04-06T11:17:49;97999.55;;;6.29;49.62
58223;BME280;44020;50.890;15.796;2023-04-06T11:20:16;97999.61;;;6.39;49.66
58223;BME280;44020;50.890;15.796;2023-04-06T11:22:53;97999.05;;;6.51;49.08
58223;BME280;44020;50.890;15.796;2023-04-06T11:25:21;97994.09;;;6.62;48.98
58223;BME280;44020;50.890;15.796;2023-04-06T11:27:48;97989.41;;;6.71;48.80
58223;BME280;44020;50.890;15.796;2023-04-06T11:30:17;97991.23;;;6.80;48.94
58223;BME280;44020;50.890;15.796;2023-04-06T11:32:45;97990.62;;;6.95;48.91
58223;BME280;44020;50.890;15.796;2023-04-06T11:35:24;97987.02;;;7.07;48.54
58223;BME280;44020;50.890;15.796;2023-04-06T11:37:52;97986.10;;;7.19;48.44
58223;BME280;44020;50.890;15.796;2023-04-06T11:40:22;97977.64;;;7.28;48.19
58223;BME280;44020;50.890;15.796;2023-04-06T11:42:53;97970.71;;;7.39;48.64
58223;BME280;44020;50.890;15.796;2023-04-06T11:45:22;97966.06;;;7.49;48.60
58223;BME280;44020;50.890;15.796;2023-04-06T11:47:59;97971.45;;;7.61;48.36
58223;BME280;44020;50.890;15.796;2023-04-06T11:50:31;97968.23;;;7.68;46.87
58223;BME280;44020;50.890;15.796;2023-04-06T11:53:01;97970.06;;;7.70;45.71
58223;BME280;44020;50.890;15.796;2023-04-06T11:55:29;97962.58;;;7.62;45.74
58223;BME280;44020;50.890;15.796;2023-04-06T11:58:03;97957.60;;;7.75;46.16
58223;BME280;44020;50.890;15.796;2023-04-06T12:00:30;97954.10;;;7.91;46.68
58223;BME280;44020;50.890;15.796;2023-04-06T12:03:01;97955.09;;;8.05;46.71
58223;BME280;44020;50.890;15.796;2023-04-06T12:05:28;97955.96;;;8.11;46.40
58223;BME280;44020;50.890;15.796;2023-04-06T12:07:55;97957.98;;;8.19;45.17
58223;BME280;44020;50.890;15.796;2023-04-06T12:10:22;97959.52;;;8.18;45.39
58223;BME280;44020;50.890;15.796;2023-04-06T12:12:50;97956.95;;;8.06;45.68
58223;BME280;44020;50.890;15.796;2023-04-06T12:15:17;97954.80;;;7.94;45.74
58223;BME280;44020;50.890;15.796;2023-04-06T12:17:44;97958.86;;;7.78;46.11
58223;BME280;44020;50.890;15.796;2023-04-06T12:20:11;97955.98;;;7.69;46.31
58223;BME280;44020;50.890;15.796;2023-04-06T12:22:39;97960.07;;;7.65;46.50
58223;BME280;44020;50.890;15.796;2023-04-06T12:25:06;97955.44;;;7.70;46.13
58223;BME280;44020;50.890;15.796;2023-04-06T12:27:34;97956.52;;;7.69;45.13
58223;BME280;44020;50.890;15.796;2023-04-06T12:30:01;97955.61;;;7.60;44.73
58223;BME280;44020;50.890;15.796;2023-04-06T12:32:29;97951.89;;;7.57;45.16
58223;BME280;44020;50.890;15.796;2023-04-06T12:34:56;97949.93;;;7.60;45.40
58223;BME280;44020;50.890;15.796;2023-04-06T12:37:24;97945.92;;;7.65;44.89
58223;BME280;44020;50.890;15.796;2023-04-06T12:39:52;97942.70;;;7.80;44.70
58223;BME280;44020;50.890;15.796;2023-04-06T12:42:19;97938.70;;;7.97;45.08
58223;BME280;44020;50.890;15.796;2023-04-06T12:44:46;97936.20;;;8.16;45.27
58223;BME280;44020;50.890;15.796;2023-04-06T12:47:13;97930.09;;;8.33;44.86
58223;BME280;44020;50.890;15.796;2023-04-06T12:49:41;97925.18;;;8.51;44.49
58223;BME280;44020;50.890;15.796;2023-04-06T12:52:08;97934.95;;;8.64;44.12
58223;BME280;44020;50.890;15.796;2023-04-06T12:54:36;97927.39;;;8.71;44.05
58223;BME280;44020;50.890;15.796;2023-04-06T12:57:04;97923.95;;;8.82;44.12
58223;BME280;44020;50.890;15.796;2023-04-06T12:59:31;97921.55;;;9.01;44.78
58223;BME280;44020;50.890;15.796;2023-04-06T13:02:03;97920.02;;;9.14;44.51
58223;BME280;44020;50.890;15.796;2023-04-06T13:04:30;97925.87;;;9.26;44.74
58223;BME280;44020;50.890;15.796;2023-04-06T13:06:57;97920.73;;;9.38;44.85
58223;BME280;44020;50.890;15.796;2023-04-06T13:09:24;97922.81;;;9.47;44.82